sensor_id;sensor_type;location;lat;lon;timestamp;temperature;humidity
11944;DHT22;6031;50.220;10.122;2022-07-29T00:00:11;19.50;78.70
11944;DHT22;6031;50.220;10.122;2022-07-29T00:02:36;19.30;78.50
11944;DHT22;6031;50.220;10.122;2022-07-29T00:05:03;19.40;78.30
11944;DHT22;6031;50.220;10.122;2022-07-29T00:07:29;19.50;77.90
11944;DHT22;6031;50.220;10.122;2022-07-29T00:09:54;19.40;77.90
11944;DHT22;6031;50.220;10.122;2022-07-29T00:12:22;19.40;77.90
11944;DHT22;6031;50.220;10.122;2022-07-29T00:14:48;19.40;77.80
11944;DHT22;6031;50.220;10.122;2022-07-29T00:17:14;19.40;76.80
11944;DHT22;6031;50.220;10.122;2022-07-29T00:19:39;19.50;76.60
11944;DHT22;6031;50.220;10.122;2022-07-29T00:22:05;19.50;76.60
11944;DHT22;6031;50.220;10.122;2022-07-29T00:24:30;19.40;77.70
11944;DHT22;6031;50.220;10.122;2022-07-29T00:26:56;19.40;78.20
11944;DHT22;6031;50.220;10.122;2022-07-29T00:29:21;19.40;77.70
11944;DHT22;6031;50.220;10.122;2022-07-29T00:31:47;19.30;77.90
11944;DHT22;6031;50.220;10.122;2022-07-29T00:34:12;19.30;78.20
11944;DHT22;6031;50.220;10.122;2022-07-29T00:36:57;19.30;78.30
11944;DHT22;6031;50.220;10.122;2022-07-29T00:39:23;19.30;78.70
11944;DHT22;6031;50.220;10.122;2022-07-29T00:41:49;19.20;77.90
11944;DHT22;6031;50.220;10.122;2022-07-29T00:44:14;19.20;78.40
11944;DHT22;6031;50.220;10.122;2022-07-29T00:46:40;19.20;78.80
11944;DHT22;6031;50.220;10.122;2022-07-29T00:49:06;19.20;79.00
11944;DHT22;6031;50.220;10.122;2022-07-29T00:51:34;19.10;78.40
11944;DHT22;6031;50.220;10.122;2022-07-29T00:54:01;19.10;78.10
11944;DHT22;6031;50.220;10.122;2022-07-29T00:56:27;19.00;77.90
11944;DHT22;6031;50.220;10.122;2022-07-29T00:58:56;19.10;77.80
11944;DHT22;6031;50.220;10.122;2022-07-29T01:01:22;19.10;77.80
11944;DHT22;6031;50.220;10.122;2022-07-29T01:03:48;19.00;78.30
11944;DHT22;6031;50.220;10.122;2022-07-29T01:06:15;19.20;78.40
11944;DHT22;6031;50.220;10.122;2022-07-29T01:08:41;19.20;77.70
11944;DHT22;6031;50.220;10.122;2022-07-29T01:11:07;19.20;78.30
11944;DHT22;6031;50.220;10.122;2022-07-29T01:13:33;19.10;78.10
11944;DHT22;6031;50.220;10.122;2022-07-29T01:16:04;19.20;78.00
11944;DHT22;6031;50.220;10.122;2022-07-29T01:18:34;19.20;78.30
11944;DHT22;6031;50.220;10.122;2022-07-29T01:29:27;19.00;78.60
11944;DHT22;6031;50.220;10.122;2022-07-29T01:32:12;19.00;79.40
11944;DHT22;6031;50.220;10.122;2022-07-29T01:39:55;18.70;80.80
11944;DHT22;6031;50.220;10.122;2022-07-29T01:42:32;18.70;79.80
11944;DHT22;6031;50.220;10.122;2022-07-29T01:45:28;18.80;79.40
11944;DHT22;6031;50.220;10.122;2022-07-29T01:48:23;18.80;79.40
11944;DHT22;6031;50.220;10.122;2022-07-29T01:51:07;18.80;79.70
11944;DHT22;6031;50.220;10.122;2022-07-29T01:53:36;18.60;80.60
11944;DHT22;6031;50.220;10.122;2022-07-29T01:56:03;18.50;81.00
11944;DHT22;6031;50.220;10.122;2022-07-29T01:58:31;18.60;80.80
11944;DHT22;6031;50.220;10.122;2022-07-29T02:00:58;18.50;80.90
11944;DHT22;6031;50.220;10.122;2022-07-29T02:03:25;18.40;80.90
11944;DHT22;6031;50.220;10.122;2022-07-29T02:05:53;18.40;81.20
11944;DHT22;6031;50.220;10.122;2022-07-29T02:08:20;18.40;81.50
11944;DHT22;6031;50.220;10.122;2022-07-29T02:10:48;18.40;81.80
11944;DHT22;6031;50.220;10.122;2022-07-29T02:13:16;18.30;81.90
11944;DHT22;6031;50.220;10.122;2022-07-29T02:15:44;18.30;82.30
11944;DHT22;6031;50.220;10.122;2022-07-29T02:18:17;18.30;82.20
11944;DHT22;6031;50.220;10.122;2022-07-29T02:20:48;18.20;82.50
11944;DHT22;6031;50.220;10.122;2022-07-29T02:23:17;18.20;82.60
11944;DHT22;6031;50.220;10.122;2022-07-29T02:25:43;18.20;83.00
11944;DHT22;6031;50.220;10.122;2022-07-29T02:28:10;18.20;83.00
11944;DHT22;6031;50.220;10.122;2022-07-29T02:30:39;18.30;82.70
11944;DHT22;6031;50.220;10.122;2022-07-29T02:33:06;18.40;84.00
11944;DHT22;6031;50.220;10.122;2022-07-29T02:35:33;18.30;83.80
11944;DHT22;6031;50.220;10.122;2022-07-29T02:37:58;18.30;83.90
11944;DHT22;6031;50.220;10.122;2022-07-29T02:40:43;18.10;84.10
11944;DHT22;6031;50.220;10.122;2022-07-29T02:43:09;17.90;85.10
11944;DHT22;6031;50.220;10.122;2022-07-29T02:45:35;17.80;85.70
11944;DHT22;6031;50.220;10.122;2022-07-29T02:48:07;17.80;86.50
11944;DHT22;6031;50.220;10.122;2022-07-29T02:50:39;17.70;87.20
11944;DHT22;6031;50.220;10.122;2022-07-29T02:53:13;17.50;88.10
11944;DHT22;6031;50.220;10.122;2022-07-29T02:55:51;17.40;88.90
11944;DHT22;6031;50.220;10.122;2022-07-29T02:58:33;17.30;89.50
11944;DHT22;6031;50.220;10.122;2022-07-29T03:03:45;17.20;90.00
11944;DHT22;6031;50.220;10.122;2022-07-29T03:06:13;17.10;90.40
11944;DHT22;6031;50.220;10.122;2022-07-29T03:08:40;17.20;90.10
11944;DHT22;6031;50.220;10.122;2022-07-29T03:11:07;17.30;90.10
11944;DHT22;6031;50.220;10.122;2022-07-29T03:13:35;17.30;90.00
11944;DHT22;6031;50.220;10.122;2022-07-29T03:16:01;17.20;90.60
11944;DHT22;6031;50.220;10.122;2022-07-29T03:18:28;17.30;91.00
11944;DHT22;6031;50.220;10.122;2022-07-29T03:20:54;17.20;91.40
11944;DHT22;6031;50.220;10.122;2022-07-29T03:23:21;17.00;91.80
11944;DHT22;6031;50.220;10.122;2022-07-29T03:25:49;16.90;92.50
11944;DHT22;6031;50.220;10.122;2022-07-29T03:28:15;16.90;92.80
11944;DHT22;6031;50.220;10.122;2022-07-29T03:30:40;16.90;92.80
11944;DHT22;6031;50.220;10.122;2022-07-29T03:33:06;16.80;92.90
11944;DHT22;6031;50.220;10.122;2022-07-29T03:35:31;16.80;94.10
11944;DHT22;6031;50.220;10.122;2022-07-29T03:37:58;16.90;94.10
11944;DHT22;6031;50.220;10.122;2022-07-29T03:40:33;17.00;93.60
11944;DHT22;6031;50.220;10.122;2022-07-29T03:43:00;16.90;93.70
11944;DHT22;6031;50.220;10.122;2022-07-29T03:45:26;16.90;94.10
11944;DHT22;6031;50.220;10.122;2022-07-29T03:48:08;16.90;94.40
11944;DHT22;6031;50.220;10.122;2022-07-29T03:50:34;17.00;94.60
11944;DHT22;6031;50.220;10.122;2022-07-29T03:53:01;17.10;95.10
11944;DHT22;6031;50.220;10.122;2022-07-29T03:55:28;17.10;95.10
11944;DHT22;6031;50.220;10.122;2022-07-29T03:57:56;17.10;94.90
11944;DHT22;6031;50.220;10.122;2022-07-29T04:00:24;17.10;95.10
11944;DHT22;6031;50.220;10.122;2022-07-29T04:02:50;17.10;94.80
11944;DHT22;6031;50.220;10.122;2022-07-29T04:05:18;17.20;94.50
11944;DHT22;6031;50.220;10.122;2022-07-29T04:07:45;17.20;95.00
11944;DHT22;6031;50.220;10.122;2022-07-29T04:10:10;17.20;94.70
11944;DHT22;6031;50.220;10.122;2022-07-29T04:12:36;17.10;95.10
11944;DHT22;6031;50.220;10.122;2022-07-29T04:15:03;17.10;95.20
11944;DHT22;6031;50.220;10.122;2022-07-29T04:17:29;17.10;94.80
11944;DHT22;6031;50.220;10.122;2022-07-29T04:19:54;17.20;95.00
11944;DHT22;6031;50.220;10.122;2022-07-29T04:22:20;17.30;94.70
11944;DHT22;6031;50.220;10.122;2022-07-29T04:24:45;17.40;95.20
11944;DHT22;6031;50.220;10.122;2022-07-29T04:27:11;17.50;95.60
11944;DHT22;6031;50.220;10.122;2022-07-29T04:29:37;17.60;94.80
11944;DHT22;6031;50.220;10.122;2022-07-29T04:32:02;17.70;94.80
11944;DHT22;6031;50.220;10.122;2022-07-29T04:34:28;17.80;94.60
11944;DHT22;6031;50.220;10.122;2022-07-29T04:36:53;17.90;95.20
11944;DHT22;6031;50.220;10.122;2022-07-29T04:39:19;17.90;94.90
11944;DHT22;6031;50.220;10.122;2022-07-29T04:41:44;18.00;94.20
11944;DHT22;6031;50.220;10.122;2022-07-29T04:44:10;18.00;93.70
11944;DHT22;6031;50.220;10.122;2022-07-29T04:46:36;18.20;92.90
11944;DHT22;6031;50.220;10.122;2022-07-29T04:49:02;18.20;93.40
11944;DHT22;6031;50.220;10.122;2022-07-29T04:51:28;18.30;93.30
11944;DHT22;6031;50.220;10.122;2022-07-29T04:53:53;18.40;93.20
11944;DHT22;6031;50.220;10.122;2022-07-29T04:56:19;18.50;93.30
11944;DHT22;6031;50.220;10.122;2022-07-29T04:58:45;18.60;93.20
11944;DHT22;6031;50.220;10.122;2022-07-29T05:01:10;18.80;93.30
11944;DHT22;6031;50.220;10.122;2022-07-29T05:03:36;18.90;94.10
11944;DHT22;6031;50.220;10.122;2022-07-29T05:06:01;19.00;94.20
11944;DHT22;6031;50.220;10.122;2022-07-29T05:08:27;19.20;93.40
11944;DHT22;6031;50.220;10.122;2022-07-29T05:10:52;19.50;92.90
11944;DHT22;6031;50.220;10.122;2022-07-29T05:13:18;19.70;91.80
11944;DHT22;6031;50.220;10.122;2022-07-29T05:15:43;19.80;91.10
11944;DHT22;6031;50.220;10.122;2022-07-29T05:18:09;20.00;90.30
11944;DHT22;6031;50.220;10.122;2022-07-29T05:20:34;20.10;89.50
11944;DHT22;6031;50.220;10.122;2022-07-29T05:23:01;20.20;88.80
11944;DHT22;6031;50.220;10.122;2022-07-29T05:25:28;20.20;90.60
11944;DHT22;6031;50.220;10.122;2022-07-29T05:27:55;20.30;90.00
11944;DHT22;6031;50.220;10.122;2022-07-29T05:30:21;20.40;89.00
11944;DHT22;6031;50.220;10.122;2022-07-29T05:32:47;20.50;87.80
11944;DHT22;6031;50.220;10.122;2022-07-29T05:35:14;20.60;87.10
11944;DHT22;6031;50.220;10.122;2022-07-29T05:37:40;20.60;86.20
11944;DHT22;6031;50.220;10.122;2022-07-29T05:40:07;20.60;85.60
11944;DHT22;6031;50.220;10.122;2022-07-29T05:42:32;20.60;85.60
11944;DHT22;6031;50.220;10.122;2022-07-29T05:44:59;20.60;85.50
11944;DHT22;6031;50.220;10.122;2022-07-29T05:47:24;20.60;85.50
11944;DHT22;6031;50.220;10.122;2022-07-29T05:49:50;20.60;85.70
11944;DHT22;6031;50.220;10.122;2022-07-29T05:52:16;20.60;87.90
11944;DHT22;6031;50.220;10.122;2022-07-29T05:54:42;20.60;87.70
11944;DHT22;6031;50.220;10.122;2022-07-29T05:57:08;20.70;87.10
11944;DHT22;6031;50.220;10.122;2022-07-29T05:59:37;20.80;86.20
11944;DHT22;6031;50.220;10.122;2022-07-29T06:02:09;20.80;84.50
11944;DHT22;6031;50.220;10.122;2022-07-29T06:04:36;20.70;84.20
11944;DHT22;6031;50.220;10.122;2022-07-29T06:07:02;20.80;83.90
11944;DHT22;6031;50.220;10.122;2022-07-29T06:09:28;20.90;83.90
11944;DHT22;6031;50.220;10.122;2022-07-29T06:11:53;20.90;83.70
11944;DHT22;6031;50.220;10.122;2022-07-29T06:14:19;21.00;83.60
11944;DHT22;6031;50.220;10.122;2022-07-29T06:16:45;21.20;83.30
11944;DHT22;6031;50.220;10.122;2022-07-29T06:19:11;21.70;82.80
11944;DHT22;6031;50.220;10.122;2022-07-29T06:21:36;22.50;82.20
11944;DHT22;6031;50.220;10.122;2022-07-29T06:24:06;23.40;80.70
11944;DHT22;6031;50.220;10.122;2022-07-29T06:26:32;24.30;78.50
11944;DHT22;6031;50.220;10.122;2022-07-29T06:28:58;24.90;76.30
11944;DHT22;6031;50.220;10.122;2022-07-29T06:31:24;25.40;75.00
11944;DHT22;6031;50.220;10.122;2022-07-29T06:33:49;25.80;73.10
11944;DHT22;6031;50.220;10.122;2022-07-29T06:36:15;26.00;72.80
11944;DHT22;6031;50.220;10.122;2022-07-29T06:38:41;26.10;72.00
11944;DHT22;6031;50.220;10.122;2022-07-29T06:41:08;26.00;72.80
11944;DHT22;6031;50.220;10.122;2022-07-29T06:43:41;27.00;70.90
11944;DHT22;6031;50.220;10.122;2022-07-29T06:46:13;27.60;69.60
11944;DHT22;6031;50.220;10.122;2022-07-29T06:48:40;28.40;68.70
11944;DHT22;6031;50.220;10.122;2022-07-29T06:51:07;29.20;66.30
11944;DHT22;6031;50.220;10.122;2022-07-29T06:53:33;29.90;65.00
11944;DHT22;6031;50.220;10.122;2022-07-29T06:56:00;30.40;63.90
11944;DHT22;6031;50.220;10.122;2022-07-29T06:58:26;30.50;63.40
11944;DHT22;6031;50.220;10.122;2022-07-29T07:00:52;31.00;61.80
11944;DHT22;6031;50.220;10.122;2022-07-29T07:03:18;31.40;60.60
11944;DHT22;6031;50.220;10.122;2022-07-29T07:05:44;30.60;60.50
11944;DHT22;6031;50.220;10.122;2022-07-29T07:08:11;30.10;62.10
11944;DHT22;6031;50.220;10.122;2022-07-29T07:10:37;30.00;62.40
11944;DHT22;6031;50.220;10.122;2022-07-29T07:13:03;29.90;61.70
11944;DHT22;6031;50.220;10.122;2022-07-29T07:15:29;28.80;63.10
11944;DHT22;6031;50.220;10.122;2022-07-29T07:17:55;28.00;65.10
11944;DHT22;6031;50.220;10.122;2022-07-29T07:20:21;28.70;65.60
11944;DHT22;6031;50.220;10.122;2022-07-29T07:22:46;30.40;63.50
11944;DHT22;6031;50.220;10.122;2022-07-29T07:25:12;31.10;61.50
11944;DHT22;6031;50.220;10.122;2022-07-29T07:27:38;31.40;60.70
11944;DHT22;6031;50.220;10.122;2022-07-29T07:30:05;32.00;59.80
11944;DHT22;6031;50.220;10.122;2022-07-29T07:32:32;32.00;59.90
11944;DHT22;6031;50.220;10.122;2022-07-29T07:34:58;32.90;59.20
11944;DHT22;6031;50.220;10.122;2022-07-29T07:37:24;33.70;58.60
11944;DHT22;6031;50.220;10.122;2022-07-29T07:39:50;34.80;56.80
11944;DHT22;6031;50.220;10.122;2022-07-29T07:42:17;35.00;56.00
11944;DHT22;6031;50.220;10.122;2022-07-29T07:44:42;34.40;55.90
11944;DHT22;6031;50.220;10.122;2022-07-29T07:47:08;34.60;56.00
11944;DHT22;6031;50.220;10.122;2022-07-29T07:49:33;34.20;55.80
11944;DHT22;6031;50.220;10.122;2022-07-29T07:51:59;33.70;56.30
11944;DHT22;6031;50.220;10.122;2022-07-29T07:54:24;32.70;56.70
11944;DHT22;6031;50.220;10.122;2022-07-29T07:56:50;32.20;57.60
11944;DHT22;6031;50.220;10.122;2022-07-29T07:59:16;31.20;59.10
11944;DHT22;6031;50.220;10.122;2022-07-29T08:01:42;30.10;60.40
11944;DHT22;6031;50.220;10.122;2022-07-29T08:04:08;29.90;62.30
11944;DHT22;6031;50.220;10.122;2022-07-29T08:06:34;31.30;60.00
11944;DHT22;6031;50.220;10.122;2022-07-29T08:09:03;32.60;58.60
11944;DHT22;6031;50.220;10.122;2022-07-29T08:11:29;32.90;57.70
11944;DHT22;6031;50.220;10.122;2022-07-29T08:13:55;32.40;57.80
11944;DHT22;6031;50.220;10.122;2022-07-29T08:16:20;31.70;58.60
11944;DHT22;6031;50.220;10.122;2022-07-29T08:18:46;30.00;60.40
11944;DHT22;6031;50.220;10.122;2022-07-29T08:21:13;29.00;62.20
11944;DHT22;6031;50.220;10.122;2022-07-29T08:23:39;28.30;64.20
11944;DHT22;6031;50.220;10.122;2022-07-29T08:26:08;27.90;64.20
11944;DHT22;6031;50.220;10.122;2022-07-29T08:28:39;27.30;66.50
11944;DHT22;6031;50.220;10.122;2022-07-29T08:31:05;26.80;68.60
11944;DHT22;6031;50.220;10.122;2022-07-29T08:33:32;26.60;69.90
11944;DHT22;6031;50.220;10.122;2022-07-29T08:35:58;26.40;71.10
11944;DHT22;6031;50.220;10.122;2022-07-29T08:38:23;26.00;73.40
11944;DHT22;6031;50.220;10.122;2022-07-29T08:40:51;25.70;74.30
11944;DHT22;6031;50.220;10.122;2022-07-29T08:43:18;25.50;76.70
11944;DHT22;6031;50.220;10.122;2022-07-29T08:45:46;25.50;76.80
11944;DHT22;6031;50.220;10.122;2022-07-29T08:48:13;25.50;78.20
11944;DHT22;6031;50.220;10.122;2022-07-29T08:50:40;25.40;81.50
11944;DHT22;6031;50.220;10.122;2022-07-29T08:53:09;25.10;84.70
11944;DHT22;6031;50.220;10.122;2022-07-29T08:55:38;25.00;86.20
11944;DHT22;6031;50.220;10.122;2022-07-29T08:58:04;25.20;86.90
11944;DHT22;6031;50.220;10.122;2022-07-29T09:00:31;25.20;86.50
11944;DHT22;6031;50.220;10.122;2022-07-29T09:02:57;25.20;85.00
11944;DHT22;6031;50.220;10.122;2022-07-29T09:05:25;25.30;84.50
11944;DHT22;6031;50.220;10.122;2022-07-29T09:07:52;24.90;90.40
11944;DHT22;6031;50.220;10.122;2022-07-29T09:10:17;24.40;91.50
11944;DHT22;6031;50.220;10.122;2022-07-29T09:12:43;24.20;92.10
11944;DHT22;6031;50.220;10.122;2022-07-29T09:15:09;23.80;93.00
11944;DHT22;6031;50.220;10.122;2022-07-29T09:17:49;23.60;93.70
11944;DHT22;6031;50.220;10.122;2022-07-29T09:20:20;23.30;94.30
11944;DHT22;6031;50.220;10.122;2022-07-29T09:22:46;23.50;96.20
11944;DHT22;6031;50.220;10.122;2022-07-29T09:25:35;23.40;96.60
11944;DHT22;6031;50.220;10.122;2022-07-29T09:28:14;23.50;96.30
11944;DHT22;6031;50.220;10.122;2022-07-29T09:30:55;23.60;94.60
11944;DHT22;6031;50.220;10.122;2022-07-29T09:33:22;23.80;93.40
11944;DHT22;6031;50.220;10.122;2022-07-29T09:36:06;24.20;92.00
11944;DHT22;6031;50.220;10.122;2022-07-29T09:38:32;24.50;92.30
11944;DHT22;6031;50.220;10.122;2022-07-29T09:40:59;24.60;91.80
11944;DHT22;6031;50.220;10.122;2022-07-29T09:43:25;24.40;91.50
11944;DHT22;6031;50.220;10.122;2022-07-29T09:45:50;24.20;91.30
11944;DHT22;6031;50.220;10.122;2022-07-29T09:48:34;24.20;91.70
11944;DHT22;6031;50.220;10.122;2022-07-29T09:51:00;24.00;92.00
11944;DHT22;6031;50.220;10.122;2022-07-29T09:53:37;23.90;92.60
11944;DHT22;6031;50.220;10.122;2022-07-29T09:56:04;23.70;93.00
11944;DHT22;6031;50.220;10.122;2022-07-29T09:58:30;23.40;93.90
11944;DHT22;6031;50.220;10.122;2022-07-29T10:00:58;23.30;94.80
11944;DHT22;6031;50.220;10.122;2022-07-29T10:03:24;23.30;95.50
11944;DHT22;6031;50.220;10.122;2022-07-29T10:06:10;23.30;95.90
11944;DHT22;6031;50.220;10.122;2022-07-29T10:08:37;23.60;95.90
11944;DHT22;6031;50.220;10.122;2022-07-29T10:11:14;24.00;95.80
11944;DHT22;6031;50.220;10.122;2022-07-29T10:13:41;24.80;95.20
11944;DHT22;6031;50.220;10.122;2022-07-29T10:16:07;25.50;93.30
11944;DHT22;6031;50.220;10.122;2022-07-29T10:18:33;25.40;92.70
11944;DHT22;6031;50.220;10.122;2022-07-29T10:21:00;25.60;92.20
11944;DHT22;6031;50.220;10.122;2022-07-29T10:23:29;25.70;91.50
11944;DHT22;6031;50.220;10.122;2022-07-29T10:25:55;25.60;91.00
11944;DHT22;6031;50.220;10.122;2022-07-29T10:28:21;25.80;91.10
11944;DHT22;6031;50.220;10.122;2022-07-29T10:30:49;26.50;90.30
11944;DHT22;6031;50.220;10.122;2022-07-29T10:36:13;29.30;84.50
11944;DHT22;6031;50.220;10.122;2022-07-29T10:44:05;32.50;75.20
11944;DHT22;6031;50.220;10.122;2022-07-29T10:46:39;33.70;73.30
11944;DHT22;6031;50.220;10.122;2022-07-29T10:49:15;34.30;70.00
11944;DHT22;6031;50.220;10.122;2022-07-29T10:59:42;32.50;71.60
11944;DHT22;6031;50.220;10.122;2022-07-29T11:05:06;30.90;79.10
11944;DHT22;6031;50.220;10.122;2022-07-29T11:07:35;30.50;79.00
11944;DHT22;6031;50.220;10.122;2022-07-29T11:15:12;28.00;80.50
11944;DHT22;6031;50.220;10.122;2022-07-29T11:18:08;28.30;80.20
11944;DHT22;6031;50.220;10.122;2022-07-29T11:20:46;28.30;80.60
11944;DHT22;6031;50.220;10.122;2022-07-29T11:23:27;28.20;81.40
11944;DHT22;6031;50.220;10.122;2022-07-29T11:29:01;28.60;79.30
11944;DHT22;6031;50.220;10.122;2022-07-29T11:31:40;28.50;89.20
11944;DHT22;6031;50.220;10.122;2022-07-29T11:34:18;28.70;88.50
11944;DHT22;6031;50.220;10.122;2022-07-29T11:39:32;29.70;87.70
11944;DHT22;6031;50.220;10.122;2022-07-29T11:45:05;30.10;78.80
11944;DHT22;6031;50.220;10.122;2022-07-29T11:47:32;30.70;75.80
11944;DHT22;6031;50.220;10.122;2022-07-29T11:49:59;32.00;78.60
11944;DHT22;6031;50.220;10.122;2022-07-29T11:52:36;31.10;82.40
11944;DHT22;6031;50.220;10.122;2022-07-29T11:55:09;31.00;84.40
11944;DHT22;6031;50.220;10.122;2022-07-29T11:57:35;32.40;82.00
11944;DHT22;6031;50.220;10.122;2022-07-29T12:00:04;32.90;78.90
11944;DHT22;6031;50.220;10.122;2022-07-29T12:02:43;33.20;76.90
11944;DHT22;6031;50.220;10.122;2022-07-29T12:05:10;33.10;72.60
11944;DHT22;6031;50.220;10.122;2022-07-29T12:07:39;33.30;78.00
11944;DHT22;6031;50.220;10.122;2022-07-29T12:10:05;32.50;81.30
11944;DHT22;6031;50.220;10.122;2022-07-29T12:12:32;31.60;82.10
11944;DHT22;6031;50.220;10.122;2022-07-29T12:14:58;31.20;85.00
11944;DHT22;6031;50.220;10.122;2022-07-29T12:17:32;32.00;85.30
11944;DHT22;6031;50.220;10.122;2022-07-29T12:20:01;33.20;78.40
11944;DHT22;6031;50.220;10.122;2022-07-29T12:22:33;33.40;74.00
11944;DHT22;6031;50.220;10.122;2022-07-29T12:25:04;34.00;78.30
11944;DHT22;6031;50.220;10.122;2022-07-29T12:27:31;34.30;77.30
11944;DHT22;6031;50.220;10.122;2022-07-29T12:30:02;35.10;78.40
11944;DHT22;6031;50.220;10.122;2022-07-29T12:32:36;34.70;77.50
11944;DHT22;6031;50.220;10.122;2022-07-29T12:35:10;34.70;77.20
11944;DHT22;6031;50.220;10.122;2022-07-29T12:37:39;35.00;75.10
11944;DHT22;6031;50.220;10.122;2022-07-29T12:40:06;35.50;75.50
11944;DHT22;6031;50.220;10.122;2022-07-29T12:42:33;36.00;72.90
11944;DHT22;6031;50.220;10.122;2022-07-29T12:44:58;36.70;69.30
11944;DHT22;6031;50.220;10.122;2022-07-29T12:47:24;35.90;68.70
11944;DHT22;6031;50.220;10.122;2022-07-29T12:50:09;35.60;69.30
11944;DHT22;6031;50.220;10.122;2022-07-29T12:52:34;35.40;69.50
11944;DHT22;6031;50.220;10.122;2022-07-29T12:55:01;34.80;68.40
11944;DHT22;6031;50.220;10.122;2022-07-29T12:57:27;35.70;67.00
11944;DHT22;6031;50.220;10.122;2022-07-29T13:00:09;36.40;63.60
11944;DHT22;6031;50.220;10.122;2022-07-29T13:02:37;36.50;61.90
11944;DHT22;6031;50.220;10.122;2022-07-29T13:05:04;36.60;62.30
11944;DHT22;6031;50.220;10.122;2022-07-29T13:07:32;36.70;63.20
11944;DHT22;6031;50.220;10.122;2022-07-29T13:12:36;36.50;62.20
11944;DHT22;6031;50.220;10.122;2022-07-29T13:15:13;36.00;61.90
11944;DHT22;6031;50.220;10.122;2022-07-29T13:17:43;36.10;61.90
11944;DHT22;6031;50.220;10.122;2022-07-29T13:20:10;35.30;62.70
11944;DHT22;6031;50.220;10.122;2022-07-29T13:22:40;35.30;63.30
11944;DHT22;6031;50.220;10.122;2022-07-29T13:25:08;35.40;62.90
11944;DHT22;6031;50.220;10.122;2022-07-29T13:27:35;34.90;62.70
11944;DHT22;6031;50.220;10.122;2022-07-29T13:30:05;35.40;62.60
11944;DHT22;6031;50.220;10.122;2022-07-29T13:32:32;35.60;62.40
11944;DHT22;6031;50.220;10.122;2022-07-29T13:35:00;36.00;62.20
11944;DHT22;6031;50.220;10.122;2022-07-29T13:37:27;36.40;61.20
11944;DHT22;6031;50.220;10.122;2022-07-29T13:39:56;36.30;60.70
11944;DHT22;6031;50.220;10.122;2022-07-29T13:42:23;37.10;59.60
11944;DHT22;6031;50.220;10.122;2022-07-29T13:44:48;36.50;59.90
11944;DHT22;6031;50.220;10.122;2022-07-29T13:47:16;35.70;61.10
11944;DHT22;6031;50.220;10.122;2022-07-29T13:49:41;34.80;61.40
11944;DHT22;6031;50.220;10.122;2022-07-29T13:52:07;34.90;61.90
11944;DHT22;6031;50.220;10.122;2022-07-29T13:54:33;34.40;62.10
11944;DHT22;6031;50.220;10.122;2022-07-29T13:57:01;34.00;63.10
11944;DHT22;6031;50.220;10.122;2022-07-29T13:59:26;33.00;64.40
11944;DHT22;6031;50.220;10.122;2022-07-29T14:01:52;32.70;65.00
11944;DHT22;6031;50.220;10.122;2022-07-29T14:04:17;32.90;64.70
11944;DHT22;6031;50.220;10.122;2022-07-29T14:06:43;33.60;64.00
11944;DHT22;6031;50.220;10.122;2022-07-29T14:09:09;34.40;63.20
11944;DHT22;6031;50.220;10.122;2022-07-29T14:11:35;35.40;62.50
11944;DHT22;6031;50.220;10.122;2022-07-29T14:14:01;35.70;61.30
11944;DHT22;6031;50.220;10.122;2022-07-29T14:16:26;35.40;61.20
11944;DHT22;6031;50.220;10.122;2022-07-29T14:18:52;35.30;61.30
11944;DHT22;6031;50.220;10.122;2022-07-29T14:21:17;35.30;61.30
11944;DHT22;6031;50.220;10.122;2022-07-29T14:23:43;34.70;61.60
11944;DHT22;6031;50.220;10.122;2022-07-29T14:26:09;33.90;62.60
11944;DHT22;6031;50.220;10.122;2022-07-29T14:28:34;33.00;63.90
11944;DHT22;6031;50.220;10.122;2022-07-29T14:31:00;32.40;64.80
11944;DHT22;6031;50.220;10.122;2022-07-29T14:33:25;31.90;65.60
11944;DHT22;6031;50.220;10.122;2022-07-29T14:35:51;31.20;66.50
11944;DHT22;6031;50.220;10.122;2022-07-29T14:38:17;30.70;67.50
11944;DHT22;6031;50.220;10.122;2022-07-29T14:40:42;30.50;68.10
11944;DHT22;6031;50.220;10.122;2022-07-29T14:43:08;30.20;68.60
11944;DHT22;6031;50.220;10.122;2022-07-29T14:45:33;30.10;68.90
11944;DHT22;6031;50.220;10.122;2022-07-29T14:47:59;30.10;68.90
11944;DHT22;6031;50.220;10.122;2022-07-29T14:50:25;30.30;68.90
11944;DHT22;6031;50.220;10.122;2022-07-29T14:52:51;30.30;68.70
11944;DHT22;6031;50.220;10.122;2022-07-29T14:55:17;30.30;68.70
11944;DHT22;6031;50.220;10.122;2022-07-29T14:57:43;30.20;68.80
11944;DHT22;6031;50.220;10.122;2022-07-29T15:00:09;30.20;68.90
11944;DHT22;6031;50.220;10.122;2022-07-29T15:02:35;30.20;68.80
11944;DHT22;6031;50.220;10.122;2022-07-29T15:05:01;30.20;68.80
11944;DHT22;6031;50.220;10.122;2022-07-29T15:07:27;30.30;69.00
11944;DHT22;6031;50.220;10.122;2022-07-29T15:09:52;30.20;69.10
11944;DHT22;6031;50.220;10.122;2022-07-29T15:12:18;30.30;68.90
11944;DHT22;6031;50.220;10.122;2022-07-29T15:14:44;30.20;68.70
11944;DHT22;6031;50.220;10.122;2022-07-29T15:17:09;30.00;69.10
11944;DHT22;6031;50.220;10.122;2022-07-29T15:19:35;29.90;69.10
11944;DHT22;6031;50.220;10.122;2022-07-29T15:22:01;29.80;69.60
11944;DHT22;6031;50.220;10.122;2022-07-29T15:24:26;29.70;70.50
11944;DHT22;6031;50.220;10.122;2022-07-29T15:26:52;29.70;71.40
11944;DHT22;6031;50.220;10.122;2022-07-29T15:29:17;29.60;71.90
11944;DHT22;6031;50.220;10.122;2022-07-29T15:31:43;29.40;72.50
11944;DHT22;6031;50.220;10.122;2022-07-29T15:34:09;29.30;72.80
11944;DHT22;6031;50.220;10.122;2022-07-29T15:36:34;29.20;73.30
11944;DHT22;6031;50.220;10.122;2022-07-29T15:39:00;28.90;73.60
11944;DHT22;6031;50.220;10.122;2022-07-29T15:41:26;28.90;74.20
11944;DHT22;6031;50.220;10.122;2022-07-29T15:43:51;28.80;75.20
11944;DHT22;6031;50.220;10.122;2022-07-29T15:46:18;28.60;74.70
11944;DHT22;6031;50.220;10.122;2022-07-29T15:49:04;28.30;75.00
11944;DHT22;6031;50.220;10.122;2022-07-29T15:51:30;28.20;75.70
11944;DHT22;6031;50.220;10.122;2022-07-29T15:53:56;28.20;76.10
11944;DHT22;6031;50.220;10.122;2022-07-29T15:56:22;28.10;76.30
11944;DHT22;6031;50.220;10.122;2022-07-29T15:58:48;28.10;76.60
11944;DHT22;6031;50.220;10.122;2022-07-29T16:01:14;28.10;76.80
11944;DHT22;6031;50.220;10.122;2022-07-29T16:03:40;28.10;77.80
11944;DHT22;6031;50.220;10.122;2022-07-29T16:06:05;27.90;78.90
11944;DHT22;6031;50.220;10.122;2022-07-29T16:08:31;27.70;79.70
11944;DHT22;6031;50.220;10.122;2022-07-29T16:10:57;27.60;80.00
11944;DHT22;6031;50.220;10.122;2022-07-29T16:13:22;27.60;80.50
11944;DHT22;6031;50.220;10.122;2022-07-29T16:15:48;27.60;80.90
11944;DHT22;6031;50.220;10.122;2022-07-29T16:18:13;27.70;81.80
11944;DHT22;6031;50.220;10.122;2022-07-29T16:20:40;27.60;82.50
11944;DHT22;6031;50.220;10.122;2022-07-29T16:23:06;27.60;83.20
11944;DHT22;6031;50.220;10.122;2022-07-29T16:25:37;27.40;83.80